createdAt,value
2022-10-08T00:04:04.728Z,3.47
2022-10-08T00:09:08.778Z,3.45
2022-10-08T00:14:12.941Z,3.05
2022-10-08T00:19:17.129Z,3.33
2022-10-08T00:24:21.233Z,3.60
2022-10-08T00:29:25.422Z,3.28
2022-10-08T00:34:28.221Z,3.55
2022-10-08T00:44:54.894Z,3.60
2022-10-08T00:50:00.436Z,4.00
2022-10-08T00:55:06.330Z,3.85
2022-10-08T01:00:14.975Z,3.45
2022-10-08T01:05:20.675Z,3.90
2022-10-08T01:10:33.348Z,3.65
2022-10-08T01:15:43.435Z,3.83
2022-10-08T01:20:53.204Z,3.83
2022-10-08T01:26:03.133Z,3.50
2022-10-08T01:31:13.481Z,3.00
2022-10-08T01:36:18.595Z,3.08
2022-10-08T01:41:25.397Z,3.15
2022-10-08T01:46:31.724Z,3.15
2022-10-08T01:51:39.006Z,3.88
2022-10-08T01:56:44.412Z,3.33
2022-10-08T02:01:57.422Z,3.95
2022-10-08T02:07:02.796Z,3.53
2022-10-08T02:12:07.120Z,3.63
2022-10-08T02:17:22.483Z,4.65
2022-10-08T02:22:30.284Z,3.20
2022-10-08T02:27:46.490Z,3.70
2022-10-08T02:32:55.926Z,3.40
2022-10-08T02:38:03.022Z,2.95
2022-10-08T02:43:10.987Z,3.30
2022-10-08T02:48:22.897Z,4.28
2022-10-08T02:53:26.613Z,3.77
2022-10-08T02:58:29.750Z,3.15
2022-10-08T03:03:37.741Z,3.78
2022-10-08T03:08:46.136Z,3.95
2022-10-08T03:13:51.342Z,3.90
2022-10-08T03:18:59.003Z,5.07
2022-10-08T03:24:01.760Z,4.15
2022-10-08T03:34:08.832Z,4.85
2022-10-08T03:39:12.163Z,3.50
2022-10-08T03:44:14.917Z,4.60
2022-10-08T03:54:21.654Z,3.83
2022-10-08T03:59:24.444Z,3.78
2022-10-08T04:09:31.349Z,3.55
2022-10-08T04:19:38.186Z,3.88
2022-10-08T04:24:40.941Z,3.70
2022-10-08T04:29:43.695Z,4.13
2022-10-08T04:34:47.902Z,4.47
2022-10-08T04:39:50.872Z,4.25
2022-10-08T04:44:53.923Z,3.15
2022-10-08T04:49:58.164Z,5.00
2022-10-08T04:55:01.066Z,5.43
2022-10-08T05:00:18.216Z,4.93
2022-10-08T05:05:23.919Z,5.03
2022-10-08T05:10:26.816Z,5.03
2022-10-08T05:15:29.871Z,7.88
2022-10-08T05:20:36.843Z,8.52
2022-10-08T05:25:39.664Z,8.70
2022-10-08T05:35:46.389Z,8.45
2022-10-08T05:40:49.163Z,9.85
2022-10-08T05:50:56.218Z,9.65
2022-10-08T05:56:02.613Z,9.60
2022-10-08T06:01:07.643Z,9.38
2022-10-08T06:06:13.013Z,9.02
2022-10-08T06:11:15.771Z,10.00
2022-10-08T06:21:25.347Z,12.40
2022-10-08T06:26:35.177Z,12.65
2022-10-08T06:31:38.709Z,11.68
2022-10-08T06:36:43.040Z,12.88
2022-10-08T06:41:46.058Z,14.05
2022-10-08T06:46:48.928Z,15.45
2022-10-08T06:51:53.130Z,17.83
2022-10-08T06:56:55.949Z,17.52
2022-10-08T07:07:02.696Z,18.73
2022-10-08T07:12:05.457Z,17.77
2022-10-08T07:22:12.165Z,14.20
2022-10-08T07:27:15.284Z,18.50
2022-10-08T07:32:18.044Z,20.42
2022-10-08T07:42:24.704Z,16.35
2022-10-08T07:52:32.123Z,16.40
2022-10-08T07:57:34.949Z,12.77
2022-10-08T08:07:41.718Z,11.38
2022-10-08T08:12:44.766Z,10.98
2022-10-08T08:17:47.702Z,11.52
2022-10-08T08:27:54.432Z,10.50
2022-10-08T08:32:57.255Z,12.60
2022-10-08T08:38:01.459Z,11.27
2022-10-08T08:43:04.220Z,13.07
2022-10-08T08:53:12.817Z,12.43
2022-10-08T08:58:33.800Z,11.85
2022-10-08T09:03:41.225Z,10.32
2022-10-08T09:08:49.409Z,8.40
2022-10-08T09:13:57.627Z,7.93
2022-10-08T09:19:00.383Z,6.43
2022-10-08T09:24:04.649Z,7.05
2022-10-08T09:29:07.489Z,6.15
2022-10-08T09:34:19.744Z,5.82
2022-10-08T09:39:26.298Z,5.22
2022-10-08T09:44:40.495Z,5.05
2022-10-08T09:49:43.938Z,4.55
2022-10-08T09:54:51.252Z,4.43
2022-10-08T09:59:57.049Z,3.92
2022-10-08T10:05:01.078Z,3.47
2022-10-08T10:10:10.155Z,2.95
2022-10-08T10:15:17.177Z,4.13
2022-10-08T10:20:23.215Z,4.80
2022-10-08T10:25:35.642Z,5.35
2022-10-08T10:30:50.448Z,4.88
2022-10-08T10:35:57.061Z,4.03
2022-10-08T10:41:10.868Z,3.97
2022-10-08T10:46:25.588Z,3.03
2022-10-08T10:51:38.861Z,2.70
2022-10-08T10:56:48.521Z,2.40
2022-10-08T11:02:00.247Z,2.10
2022-10-08T11:07:07.074Z,2.00
2022-10-08T11:12:27.837Z,1.80
2022-10-08T11:17:42.727Z,1.75
2022-10-08T11:22:56.244Z,1.98
2022-10-08T11:28:16.734Z,1.30
2022-10-08T11:33:19.999Z,1.40
2022-10-08T11:38:31.488Z,2.08
2022-10-08T11:43:44.429Z,1.65
2022-10-08T11:48:48.022Z,1.90
2022-10-08T11:54:03.768Z,1.08
2022-10-08T11:59:25.449Z,1.20
2022-10-08T12:04:34.590Z,1.50
2022-10-08T12:10:01.945Z,1.60
2022-10-08T12:15:45.938Z,0.90
2022-10-08T12:21:27.370Z,0.98
2022-10-08T12:26:30.243Z,1.25
2022-10-08T12:31:39.912Z,1.60
2022-10-08T12:36:54.739Z,1.20
2022-10-08T12:42:08.501Z,1.42
2022-10-08T12:47:25.388Z,1.10
2022-10-08T12:52:33.654Z,0.70
2022-10-08T12:57:39.048Z,1.15
2022-10-08T13:02:43.725Z,0.95
2022-10-08T13:07:46.834Z,0.85
2022-10-08T13:13:03.767Z,0.80
2022-10-08T13:18:15.780Z,0.90
2022-10-08T13:23:33.821Z,0.70
2022-10-08T13:28:59.270Z,1.05
2022-10-08T13:34:05.050Z,1.50
2022-10-08T13:39:19.328Z,0.88
2022-10-08T13:44:22.332Z,0.80
2022-10-08T13:49:28.028Z,0.80
2022-10-08T13:54:33.419Z,1.08
2022-10-08T13:59:36.233Z,0.47
2022-10-08T14:04:40.468Z,1.10
2022-10-08T14:09:43.326Z,0.60
2022-10-08T14:14:46.379Z,0.70
2022-10-08T14:19:51.174Z,0.70
2022-10-08T14:24:54.009Z,0.50
2022-10-08T14:29:56.815Z,0.43
2022-10-08T14:35:00.993Z,0.25
2022-10-08T14:40:04.186Z,0.30
2022-10-08T14:45:07.889Z,1.48
2022-10-08T14:50:13.488Z,0.28
2022-10-08T14:55:16.507Z,0.30
2022-10-08T15:00:19.477Z,0.60
2022-10-08T15:05:23.622Z,0.85
2022-10-08T15:10:26.450Z,0.80
2022-10-08T15:15:29.247Z,1.17
2022-10-08T15:20:34.278Z,0.50
2022-10-08T15:25:37.434Z,0.80
2022-10-08T15:30:40.945Z,0.63
2022-10-08T15:35:45.073Z,0.68
2022-10-08T15:40:47.930Z,0.65
2022-10-08T15:45:50.774Z,0.60
2022-10-08T15:50:59.854Z,0.93
2022-10-08T15:56:02.839Z,0.80
2022-10-08T16:01:09.996Z,0.75
2022-10-08T16:06:16.941Z,0.90
2022-10-08T16:11:21.822Z,1.25
2022-10-08T16:16:24.624Z,0.82
2022-10-08T16:21:30.676Z,1.10
2022-10-08T16:26:35.391Z,1.15
2022-10-08T16:31:39.283Z,0.80
2022-10-08T16:36:44.126Z,1.10
2022-10-08T16:41:47.238Z,0.95
2022-10-08T16:46:51.712Z,1.23
2022-10-08T16:51:58.213Z,1.73
2022-10-08T16:57:01.091Z,1.50
2022-10-08T17:02:03.932Z,2.20
2022-10-08T17:07:08.616Z,1.23
2022-10-08T17:12:11.377Z,1.15
2022-10-08T17:17:14.544Z,1.20
2022-10-08T17:22:18.726Z,1.20
2022-10-08T17:27:21.484Z,1.13
2022-10-08T17:32:24.272Z,1.77
2022-10-08T17:37:28.369Z,1.20
2022-10-08T17:42:31.244Z,2.15
2022-10-08T17:47:33.984Z,2.33
2022-10-08T17:52:38.117Z,1.77
2022-10-08T17:57:40.892Z,1.55
2022-10-08T18:02:43.704Z,2.20
2022-10-08T18:07:47.815Z,2.25
2022-10-08T18:12:50.809Z,2.65
2022-10-08T18:17:53.739Z,2.90
2022-10-08T18:28:00.354Z,2.05
2022-10-08T18:38:06.991Z,2.67
2022-10-08T18:43:09.734Z,2.75
2022-10-08T18:48:12.437Z,2.60
2022-10-08T18:58:19.092Z,2.92
2022-10-08T19:08:25.806Z,3.08
2022-10-08T19:13:28.498Z,2.33
2022-10-08T19:18:31.260Z,3.30
2022-10-08T19:23:35.410Z,3.38
2022-10-08T19:28:39.734Z,3.72
2022-10-08T19:33:42.814Z,3.50
2022-10-08T19:38:52.371Z,3.30
2022-10-08T19:43:56.608Z,3.33
2022-10-08T19:49:01.530Z,4.30
2022-10-08T19:54:06.415Z,3.42
2022-10-08T19:59:11.523Z,3.88
2022-10-08T20:04:16.646Z,3.60
2022-10-08T20:09:21.077Z,3.65
2022-10-08T20:14:23.829Z,3.78
2022-10-08T20:24:30.521Z,3.75
2022-10-08T20:29:33.965Z,3.70
2022-10-08T20:34:36.917Z,4.05
2022-10-08T20:39:41.098Z,3.60
2022-10-08T20:44:43.812Z,3.78
2022-10-08T20:54:50.517Z,3.83
2022-10-08T20:59:54.148Z,3.75
2022-10-08T21:04:57.147Z,4.25
2022-10-08T21:10:01.575Z,5.43
2022-10-08T21:15:04.655Z,5.15
2022-10-08T21:20:08.508Z,4.78
2022-10-08T21:25:12.889Z,4.88
2022-10-08T21:30:15.785Z,4.60
2022-10-08T21:35:18.584Z,4.90
2022-10-08T21:45:25.380Z,4.90
2022-10-08T21:50:28.203Z,4.95
2022-10-08T22:00:35.124Z,4.97
2022-10-08T22:05:37.893Z,4.57
2022-10-08T22:15:52.478Z,4.45
2022-10-08T22:20:55.730Z,5.57
2022-10-08T22:26:01.382Z,5.40
2022-10-08T22:31:06.222Z,5.20
2022-10-08T22:36:10.782Z,4.53
2022-10-08T22:41:17.124Z,5.43
2022-10-08T22:46:22.533Z,8.27
2022-10-08T22:51:25.410Z,7.00
2022-10-08T22:56:31.442Z,6.65
2022-10-08T23:01:34.213Z,6.88
2022-10-08T23:06:37.238Z,6.32
2022-10-08T23:11:41.365Z,6.45
2022-10-08T23:16:44.222Z,7.90
2022-10-08T23:21:47.022Z,5.90
2022-10-08T23:31:54.504Z,5.85
2022-10-08T23:36:57.265Z,6.40
2022-10-08T23:47:04.209Z,7.00
2022-10-08T23:57:10.877Z,5.22
